sensor_id;sensor_type;location;lat;lon;timestamp;pressure;altitude;pressure_sealevel;temperature;humidity
9129;BME280;4599;50.906;6.786;2023-04-01T00:00:34;16018.13;;;-142.83;74.27
9129;BME280;4599;50.906;6.786;2023-04-01T00:04:38;16024.28;;;-142.83;73.83
9129;BME280;4599;50.906;6.786;2023-04-01T00:08:40;16014.03;;;-142.83;74.06
9129;BME280;4599;50.906;6.786;2023-04-01T00:12:43;16003.81;;;-142.83;75.13
9129;BME280;4599;50.906;6.786;2023-04-01T00:16:45;15995.66;;;-142.83;74.52
9129;BME280;4599;50.906;6.786;2023-04-01T00:20:50;16034.50;;;-142.83;74.24
9129;BME280;4599;50.906;6.786;2023-04-01T00:24:53;15997.69;;;-142.83;74.45
9129;BME280;4599;50.906;6.786;2023-04-01T00:28:56;16030.41;;;-142.83;73.80
9129;BME280;4599;50.906;6.786;2023-04-01T00:33:00;16026.31;;;-142.83;74.03
9129;BME280;4599;50.906;6.786;2023-04-01T00:37:02;16032.44;;;-142.83;74.57
9129;BME280;4599;50.906;6.786;2023-04-01T00:41:04;16032.44;;;-142.83;74.87
9129;BME280;4599;50.906;6.786;2023-04-01T00:45:56;16022.22;;;-142.83;74.64
9129;BME280;4599;50.906;6.786;2023-04-01T00:49:57;16012.00;;;-142.83;74.31
9129;BME280;4599;50.906;6.786;2023-04-01T00:54:01;16022.22;;;-142.83;73.29
9129;BME280;4599;50.906;6.786;2023-04-01T00:58:05;16032.44;;;-142.83;73.69
9129;BME280;4599;50.906;6.786;2023-04-01T01:02:12;16018.13;;;-142.83;74.51
9129;BME280;4599;50.906;6.786;2023-04-01T01:06:23;16030.41;;;-142.83;73.49
9129;BME280;4599;50.906;6.786;2023-04-01T01:10:30;16044.72;;;-142.83;74.10
9129;BME280;4599;50.906;6.786;2023-04-01T01:18:59;16014.03;;;-142.83;72.92
9129;BME280;4599;50.906;6.786;2023-04-01T01:23:36;16034.50;;;-142.83;73.74
9129;BME280;4599;50.906;6.786;2023-04-01T01:27:46;16040.63;;;-142.83;74.06
9129;BME280;4599;50.906;6.786;2023-04-01T01:31:59;16026.31;;;-142.83;74.72
9129;BME280;4599;50.906;6.786;2023-04-01T01:36:06;16038.59;;;-142.83;75.41
9129;BME280;4599;50.906;6.786;2023-04-01T01:40:12;16007.91;;;-142.83;76.83
9129;BME280;4599;50.906;6.786;2023-04-01T01:44:15;16020.19;;;-142.83;75.12
9129;BME280;4599;50.906;6.786;2023-04-01T01:48:19;16003.81;;;-142.83;76.76
9129;BME280;4599;50.906;6.786;2023-04-01T01:52:23;15989.50;;;-142.83;78.09
9129;BME280;4599;50.906;6.786;2023-04-01T01:56:27;16009.97;;;-142.83;77.70
9129;BME280;4599;50.906;6.786;2023-04-01T02:00:32;15983.38;;;-142.83;77.37
9129;BME280;4599;50.906;6.786;2023-04-01T02:04:35;15928.16;;;-142.83;79.58
9129;BME280;4599;50.906;6.786;2023-04-01T02:08:42;15967.03;;;-142.83;79.97
9129;BME280;4599;50.906;6.786;2023-04-01T02:12:46;15977.25;;;-142.83;80.34
9129;BME280;4599;50.906;6.786;2023-04-01T02:16:53;15956.78;;;-142.83;81.13
9129;BME280;4599;50.906;6.786;2023-04-01T02:20:57;15907.72;;;-142.83;83.24
9129;BME280;4599;50.906;6.786;2023-04-01T02:25:05;15899.53;;;-142.83;83.27
9129;BME280;4599;50.906;6.786;2023-04-01T02:29:08;15899.53;;;-142.83;84.43
9129;BME280;4599;50.906;6.786;2023-04-01T02:33:16;15881.16;;;-142.83;84.22
9129;BME280;4599;50.906;6.786;2023-04-01T02:37:18;15897.50;;;-142.83;86.03
9129;BME280;4599;50.906;6.786;2023-04-01T02:41:21;15920.00;;;-142.83;85.71
9129;BME280;4599;50.906;6.786;2023-04-01T02:45:25;15903.63;;;-142.83;85.52
9129;BME280;4599;50.906;6.786;2023-04-01T02:49:27;15903.63;;;-142.83;85.16
9129;BME280;4599;50.906;6.786;2023-04-01T02:53:28;15899.53;;;-142.83;84.80
9129;BME280;4599;50.906;6.786;2023-04-01T02:57:31;15932.25;;;-142.83;82.92
9129;BME280;4599;50.906;6.786;2023-04-01T03:01:33;15932.25;;;-142.83;83.60
9129;BME280;4599;50.906;6.786;2023-04-01T03:05:35;15909.78;;;-142.83;82.03
9129;BME280;4599;50.906;6.786;2023-04-01T03:09:38;15928.16;;;-142.83;80.85
9129;BME280;4599;50.906;6.786;2023-04-01T03:13:43;15915.91;;;-142.83;81.95
9129;BME280;4599;50.906;6.786;2023-04-01T03:17:45;15928.16;;;-142.83;82.15
9129;BME280;4599;50.906;6.786;2023-04-01T03:21:46;15946.56;;;-142.83;82.98
9129;BME280;4599;50.906;6.786;2023-04-01T03:25:48;15913.84;;;-142.83;82.31
9129;BME280;4599;50.906;6.786;2023-04-01T03:29:51;15944.53;;;-142.83;82.95
9129;BME280;4599;50.906;6.786;2023-04-01T03:33:53;15907.72;;;-142.83;82.72
9129;BME280;4599;50.906;6.786;2023-04-01T03:37:57;15928.16;;;-142.83;83.27
9129;BME280;4599;50.906;6.786;2023-04-01T03:41:59;15920.00;;;-142.83;83.25
9129;BME280;4599;50.906;6.786;2023-04-01T03:46:02;15952.72;;;-142.83;83.36
9129;BME280;4599;50.906;6.786;2023-04-01T03:50:06;15944.53;;;-142.83;82.92
9129;BME280;4599;50.906;6.786;2023-04-01T03:54:08;15936.34;;;-142.83;82.36
9129;BME280;4599;50.906;6.786;2023-04-01T03:58:10;15956.78;;;-142.83;82.40
9129;BME280;4599;50.906;6.786;2023-04-01T04:02:13;15932.25;;;-142.83;81.91
9129;BME280;4599;50.906;6.786;2023-04-01T04:06:15;15944.53;;;-142.83;81.21
9129;BME280;4599;50.906;6.786;2023-04-01T04:10:17;15952.72;;;-142.83;81.99
9129;BME280;4599;50.906;6.786;2023-04-01T04:14:19;15928.16;;;-142.83;82.45
9129;BME280;4599;50.906;6.786;2023-04-01T04:18:24;15936.34;;;-142.83;82.95
9129;BME280;4599;50.906;6.786;2023-04-01T04:22:26;15928.16;;;-142.83;82.00
9129;BME280;4599;50.906;6.786;2023-04-01T04:26:28;15930.22;;;-142.83;84.38
9129;BME280;4599;50.906;6.786;2023-04-01T04:30:30;15897.50;;;-142.83;84.31
9129;BME280;4599;50.906;6.786;2023-04-01T04:34:34;15928.16;;;-142.83;84.60
9129;BME280;4599;50.906;6.786;2023-04-01T04:38:35;15891.38;;;-142.83;85.35
9129;BME280;4599;50.906;6.786;2023-04-01T04:42:37;15903.63;;;-142.83;86.86
9129;BME280;4599;50.906;6.786;2023-04-01T04:46:39;15895.47;;;-142.83;87.37
9129;BME280;4599;50.906;6.786;2023-04-01T04:50:43;15899.53;;;-142.83;87.25
9129;BME280;4599;50.906;6.786;2023-04-01T04:54:47;15897.50;;;-142.83;87.17
9129;BME280;4599;50.906;6.786;2023-04-01T04:58:50;15872.97;;;-142.83;86.93
9129;BME280;4599;50.906;6.786;2023-04-01T05:02:52;15907.72;;;-142.83;86.35
9129;BME280;4599;50.906;6.786;2023-04-01T05:06:55;15915.91;;;-142.83;86.60
9129;BME280;4599;50.906;6.786;2023-04-01T05:10:57;15885.22;;;-142.83;87.30
9129;BME280;4599;50.906;6.786;2023-04-01T05:14:58;15911.81;;;-142.83;88.51
9129;BME280;4599;50.906;6.786;2023-04-01T05:19:00;15917.94;;;-142.83;87.67
9129;BME280;4599;50.906;6.786;2023-04-01T05:23:03;15887.28;;;-142.83;88.41
9129;BME280;4599;50.906;6.786;2023-04-01T05:27:05;15899.53;;;-142.83;89.36
9129;BME280;4599;50.906;6.786;2023-04-01T05:31:06;15891.38;;;-142.83;89.18
9129;BME280;4599;50.906;6.786;2023-04-01T05:35:09;15895.47;;;-142.83;89.80
9129;BME280;4599;50.906;6.786;2023-04-01T05:39:12;15895.47;;;-142.83;90.81
9129;BME280;4599;50.906;6.786;2023-04-01T05:43:16;15875.00;;;-142.83;90.71
9129;BME280;4599;50.906;6.786;2023-04-01T05:47:18;15903.63;;;-142.83;90.43
9129;BME280;4599;50.906;6.786;2023-04-01T05:51:19;15889.31;;;-142.83;91.86
9129;BME280;4599;50.906;6.786;2023-04-01T05:55:23;15866.84;;;-142.83;91.82
9129;BME280;4599;50.906;6.786;2023-04-01T05:59:26;15905.69;;;-142.83;92.37
9129;BME280;4599;50.906;6.786;2023-04-01T06:03:29;15870.91;;;-142.83;92.86
9129;BME280;4599;50.906;6.786;2023-04-01T06:07:30;15879.09;;;-142.83;92.23
9129;BME280;4599;50.906;6.786;2023-04-01T06:11:37;15840.25;;;-142.83;92.20
9129;BME280;4599;50.906;6.786;2023-04-01T06:15:48;15881.16;;;-142.83;92.26
9129;BME280;4599;50.906;6.786;2023-04-01T06:20:07;15891.38;;;-142.83;92.38
9129;BME280;4599;50.906;6.786;2023-04-01T06:24:41;15891.38;;;-142.83;92.28
9129;BME280;4599;50.906;6.786;2023-04-01T06:29:05;15879.09;;;-142.83;92.32
9129;BME280;4599;50.906;6.786;2023-04-01T06:33:35;15895.47;;;-142.83;92.36
9129;BME280;4599;50.906;6.786;2023-04-01T06:37:54;15901.59;;;-142.83;91.91
9129;BME280;4599;50.906;6.786;2023-04-01T06:42:15;15887.28;;;-142.83;92.40
9129;BME280;4599;50.906;6.786;2023-04-01T06:46:30;15877.06;;;-142.83;91.66
9129;BME280;4599;50.906;6.786;2023-04-01T06:50:37;15897.50;;;-142.83;92.56
9129;BME280;4599;50.906;6.786;2023-04-01T06:54:47;15911.81;;;-142.83;91.55
9129;BME280;4599;50.906;6.786;2023-04-01T06:58:52;15875.00;;;-142.83;91.36
9129;BME280;4599;50.906;6.786;2023-04-01T07:03:06;15917.94;;;-142.83;90.08
9129;BME280;4599;50.906;6.786;2023-04-01T07:07:14;15909.78;;;-142.83;90.49
9129;BME280;4599;50.906;6.786;2023-04-01T07:11:22;15891.38;;;-142.83;89.82
9129;BME280;4599;50.906;6.786;2023-04-01T07:15:29;15899.53;;;-142.83;89.19
9129;BME280;4599;50.906;6.786;2023-04-01T07:19:42;15917.94;;;-142.83;90.14
9129;BME280;4599;50.906;6.786;2023-04-01T07:23:46;15832.06;;;-142.83;91.40
9129;BME280;4599;50.906;6.786;2023-04-01T07:27:48;15885.22;;;-142.83;90.42
9129;BME280;4599;50.906;6.786;2023-04-01T07:32:20;15899.53;;;-142.83;90.66
9129;BME280;4599;50.906;6.786;2023-04-01T07:36:31;15889.31;;;-142.83;90.48
9129;BME280;4599;50.906;6.786;2023-04-01T07:40:39;15903.63;;;-142.83;91.09
9129;BME280;4599;50.906;6.786;2023-04-01T07:44:49;15895.47;;;-142.83;91.40
9129;BME280;4599;50.906;6.786;2023-04-01T07:48:59;15897.50;;;-142.83;90.64
9129;BME280;4599;50.906;6.786;2023-04-01T07:53:10;15907.72;;;-142.83;91.24
9129;BME280;4599;50.906;6.786;2023-04-01T07:57:19;15879.09;;;-142.83;92.21
9129;BME280;4599;50.906;6.786;2023-04-01T08:01:29;15893.41;;;-142.83;92.20
9129;BME280;4599;50.906;6.786;2023-04-01T08:05:40;15875.00;;;-142.83;91.96
9129;BME280;4599;50.906;6.786;2023-04-01T08:09:50;15879.09;;;-142.83;91.83
9129;BME280;4599;50.906;6.786;2023-04-01T08:14:03;15870.91;;;-142.83;93.18
9129;BME280;4599;50.906;6.786;2023-04-01T08:18:15;15895.47;;;-142.83;93.35
9129;BME280;4599;50.906;6.786;2023-04-01T08:22:25;15907.72;;;-142.83;92.67
9129;BME280;4599;50.906;6.786;2023-04-01T08:26:34;15903.63;;;-142.83;93.21
9129;BME280;4599;50.906;6.786;2023-04-01T08:30:41;15909.78;;;-142.83;92.48
9129;BME280;4599;50.906;6.786;2023-04-01T08:34:47;15872.97;;;-142.83;92.95
9129;BME280;4599;50.906;6.786;2023-04-01T08:38:52;15877.06;;;-142.83;92.99
9129;BME280;4599;50.906;6.786;2023-04-01T08:43:06;15870.91;;;-142.83;92.83
9129;BME280;4599;50.906;6.786;2023-04-01T08:52:07;15915.91;;;-142.83;92.29
9129;BME280;4599;50.906;6.786;2023-04-01T08:56:17;15885.22;;;-142.83;92.73
9129;BME280;4599;50.906;6.786;2023-04-01T09:00:27;15891.38;;;-142.83;92.85
9129;BME280;4599;50.906;6.786;2023-04-01T09:04:42;15877.06;;;-142.83;93.39
9129;BME280;4599;50.906;6.786;2023-04-01T09:13:47;15870.91;;;-142.83;93.99
9129;BME280;4599;50.906;6.786;2023-04-01T09:18:20;15924.09;;;-142.83;94.43
9129;BME280;4599;50.906;6.786;2023-04-01T09:22:37;15868.88;;;-142.83;94.65
9129;BME280;4599;50.906;6.786;2023-04-01T09:26:58;15891.38;;;-142.83;95.06
9129;BME280;4599;50.906;6.786;2023-04-01T09:31:17;15887.28;;;-142.83;94.16
9129;BME280;4599;50.906;6.786;2023-04-01T09:35:38;15924.09;;;-142.83;94.36
9129;BME280;4599;50.906;6.786;2023-04-01T09:44:22;15899.53;;;-142.83;92.98
9129;BME280;4599;50.906;6.786;2023-04-01T09:48:46;15911.81;;;-142.83;92.98
9129;BME280;4599;50.906;6.786;2023-04-01T09:53:04;15903.63;;;-142.83;93.06
9129;BME280;4599;50.906;6.786;2023-04-01T09:57:37;15932.25;;;-142.83;91.84
9129;BME280;4599;50.906;6.786;2023-04-01T10:02:01;15926.13;;;-142.83;91.89
9129;BME280;4599;50.906;6.786;2023-04-01T10:11:14;15905.69;;;-142.83;92.50
9129;BME280;4599;50.906;6.786;2023-04-01T10:20:05;15879.09;;;-142.83;91.93
9129;BME280;4599;50.906;6.786;2023-04-01T10:24:26;15866.84;;;-142.83;91.76
9129;BME280;4599;50.906;6.786;2023-04-01T10:28:57;15911.81;;;-142.83;91.31
9129;BME280;4599;50.906;6.786;2023-04-01T10:33:26;15881.16;;;-142.83;91.08
9129;BME280;4599;50.906;6.786;2023-04-01T10:38:13;15895.47;;;-142.83;89.94
9129;BME280;4599;50.906;6.786;2023-04-01T10:47:31;15928.16;;;-142.83;89.39
9129;BME280;4599;50.906;6.786;2023-04-01T10:56:32;15885.22;;;-142.83;89.89
9129;BME280;4599;50.906;6.786;2023-04-01T11:01:02;15893.41;;;-142.83;90.15
9129;BME280;4599;50.906;6.786;2023-04-01T11:05:48;15891.38;;;-142.83;90.32
9129;BME280;4599;50.906;6.786;2023-04-01T11:19:50;15891.38;;;-142.83;90.36
9129;BME280;4599;50.906;6.786;2023-04-01T11:24:17;15891.38;;;-142.83;90.51
9129;BME280;4599;50.906;6.786;2023-04-01T11:28:33;15917.94;;;-142.83;89.32
9129;BME280;4599;50.906;6.786;2023-04-01T11:32:49;15924.09;;;-142.83;89.22
9129;BME280;4599;50.906;6.786;2023-04-01T11:37:01;15897.50;;;-142.83;90.22
9129;BME280;4599;50.906;6.786;2023-04-01T11:41:25;15928.16;;;-142.83;89.31
9129;BME280;4599;50.906;6.786;2023-04-01T11:45:36;15940.44;;;-142.83;87.95
9129;BME280;4599;50.906;6.786;2023-04-01T11:49:49;15932.25;;;-142.83;87.92
9129;BME280;4599;50.906;6.786;2023-04-01T11:54:00;15979.28;;;-142.83;88.61
9129;BME280;4599;50.906;6.786;2023-04-01T11:58:27;15973.16;;;-142.83;87.10
9129;BME280;4599;50.906;6.786;2023-04-01T12:02:43;15948.63;;;-142.83;87.38
9129;BME280;4599;50.906;6.786;2023-04-01T12:06:54;15926.13;;;-142.83;87.02
9129;BME280;4599;50.906;6.786;2023-04-01T12:11:06;15928.16;;;-142.83;87.66
9129;BME280;4599;50.906;6.786;2023-04-01T12:15:20;15911.81;;;-142.83;87.85
9129;BME280;4599;50.906;6.786;2023-04-01T12:19:31;15928.16;;;-142.83;88.43
9129;BME280;4599;50.906;6.786;2023-04-01T12:23:55;15891.38;;;-142.83;88.27
9129;BME280;4599;50.906;6.786;2023-04-01T12:28:06;15893.41;;;-142.83;88.10
9129;BME280;4599;50.906;6.786;2023-04-01T12:32:23;15928.16;;;-142.83;86.23
9129;BME280;4599;50.906;6.786;2023-04-01T12:36:48;15981.34;;;-142.83;86.26
9129;BME280;4599;50.906;6.786;2023-04-01T12:41:05;15915.91;;;-142.83;86.53
9129;BME280;4599;50.906;6.786;2023-04-01T12:45:26;15940.44;;;-142.83;86.72
9129;BME280;4599;50.906;6.786;2023-04-01T12:49:52;15930.22;;;-142.83;85.38
9129;BME280;4599;50.906;6.786;2023-04-01T12:54:19;15928.16;;;-142.83;84.29
9129;BME280;4599;50.906;6.786;2023-04-01T12:58:56;15948.63;;;-142.83;85.62
9129;BME280;4599;50.906;6.786;2023-04-01T13:03:19;15932.25;;;-142.83;84.92
9129;BME280;4599;50.906;6.786;2023-04-01T13:07:49;15952.72;;;-142.83;84.52
9129;BME280;4599;50.906;6.786;2023-04-01T13:12:04;15997.69;;;-142.83;83.86
9129;BME280;4599;50.906;6.786;2023-04-01T13:16:11;15934.31;;;-142.83;83.83
9129;BME280;4599;50.906;6.786;2023-04-01T13:20:26;15979.28;;;-142.83;84.17
9129;BME280;4599;50.906;6.786;2023-04-01T13:24:40;15932.25;;;-142.83;84.88
9129;BME280;4599;50.906;6.786;2023-04-01T13:28:50;15940.44;;;-142.83;83.90
9129;BME280;4599;50.906;6.786;2023-04-01T13:32:59;15977.25;;;-142.83;83.50
9129;BME280;4599;50.906;6.786;2023-04-01T13:37:11;15922.03;;;-142.83;82.59
9129;BME280;4599;50.906;6.786;2023-04-01T13:41:25;15991.56;;;-142.83;82.68
9129;BME280;4599;50.906;6.786;2023-04-01T13:45:38;15960.88;;;-142.83;83.14
9129;BME280;4599;50.906;6.786;2023-04-01T13:54:59;15958.84;;;-142.83;84.27
9129;BME280;4599;50.906;6.786;2023-04-01T13:59:22;15940.44;;;-142.83;84.15
9129;BME280;4599;50.906;6.786;2023-04-01T14:03:41;15936.34;;;-142.83;84.25
9129;BME280;4599;50.906;6.786;2023-04-01T14:07:55;15936.34;;;-142.83;84.64
9129;BME280;4599;50.906;6.786;2023-04-01T14:12:05;15920.00;;;-142.83;84.93
9129;BME280;4599;50.906;6.786;2023-04-01T14:16:27;15960.88;;;-142.83;84.95
9129;BME280;4599;50.906;6.786;2023-04-01T14:20:39;15901.59;;;-142.83;86.35
9129;BME280;4599;50.906;6.786;2023-04-01T14:24:58;15952.72;;;-142.83;85.76
9129;BME280;4599;50.906;6.786;2023-04-01T14:29:16;15903.63;;;-142.83;87.08
9129;BME280;4599;50.906;6.786;2023-04-01T14:33:33;15899.53;;;-142.83;86.55
9129;BME280;4599;50.906;6.786;2023-04-01T14:37:54;15920.00;;;-142.83;87.50
9129;BME280;4599;50.906;6.786;2023-04-01T14:42:08;15877.06;;;-142.83;88.16
9129;BME280;4599;50.906;6.786;2023-04-01T14:51:09;15907.72;;;-142.83;88.12
9129;BME280;4599;50.906;6.786;2023-04-01T14:55:23;15893.41;;;-142.83;89.67
9129;BME280;4599;50.906;6.786;2023-04-01T14:59:29;15915.91;;;-142.83;88.99
9129;BME280;4599;50.906;6.786;2023-04-01T15:03:36;15917.94;;;-142.83;88.53
9129;BME280;4599;50.906;6.786;2023-04-01T15:08:04;15920.00;;;-142.83;88.53
9129;BME280;4599;50.906;6.786;2023-04-01T15:12:16;15950.66;;;-142.83;87.95
9129;BME280;4599;50.906;6.786;2023-04-01T15:16:26;15928.16;;;-142.83;87.39
9129;BME280;4599;50.906;6.786;2023-04-01T15:20:53;15920.00;;;-142.83;87.93
9129;BME280;4599;50.906;6.786;2023-04-01T15:25:13;15936.34;;;-142.83;85.32
9129;BME280;4599;50.906;6.786;2023-04-01T15:29:33;15934.31;;;-142.83;85.64
9129;BME280;4599;50.906;6.786;2023-04-01T15:38:06;15960.88;;;-142.83;83.29
9129;BME280;4599;50.906;6.786;2023-04-01T15:42:24;15930.22;;;-142.83;83.43
9129;BME280;4599;50.906;6.786;2023-04-01T15:46:41;15924.09;;;-142.83;84.50
9129;BME280;4599;50.906;6.786;2023-04-01T15:50:53;15917.94;;;-142.83;84.85
9129;BME280;4599;50.906;6.786;2023-04-01T15:55:09;15895.47;;;-142.83;85.23
9129;BME280;4599;50.906;6.786;2023-04-01T15:59:29;15934.31;;;-142.83;87.34
9129;BME280;4599;50.906;6.786;2023-04-01T16:03:41;15920.00;;;-142.83;87.10
9129;BME280;4599;50.906;6.786;2023-04-01T16:07:55;15887.28;;;-142.83;86.74
9129;BME280;4599;50.906;6.786;2023-04-01T16:12:07;15909.78;;;-142.83;86.40
9129;BME280;4599;50.906;6.786;2023-04-01T16:16:23;15903.63;;;-142.83;86.89
9129;BME280;4599;50.906;6.786;2023-04-01T16:20:43;15893.41;;;-142.83;87.48
9129;BME280;4599;50.906;6.786;2023-04-01T16:24:51;15895.47;;;-142.83;87.55
9129;BME280;4599;50.906;6.786;2023-04-01T16:28:57;15899.53;;;-142.83;87.13
9129;BME280;4599;50.906;6.786;2023-04-01T16:33:11;15875.00;;;-142.83;88.79
9129;BME280;4599;50.906;6.786;2023-04-01T16:37:19;15895.47;;;-142.83;87.76
9129;BME280;4599;50.906;6.786;2023-04-01T16:41:24;15922.03;;;-142.83;88.84
9129;BME280;4599;50.906;6.786;2023-04-01T16:45:33;15895.47;;;-142.83;88.41
9129;BME280;4599;50.906;6.786;2023-04-01T16:49:42;15875.00;;;-142.83;88.50
9129;BME280;4599;50.906;6.786;2023-04-01T16:53:50;15858.66;;;-142.83;89.30
9129;BME280;4599;50.906;6.786;2023-04-01T16:57:58;15897.50;;;-142.83;89.53
9129;BME280;4599;50.906;6.786;2023-04-01T17:02:03;15922.03;;;-142.83;89.92
9129;BME280;4599;50.906;6.786;2023-04-01T17:06:22;15887.28;;;-142.83;89.97
9129;BME280;4599;50.906;6.786;2023-04-01T17:10:40;15875.00;;;-142.83;90.05
9129;BME280;4599;50.906;6.786;2023-04-01T17:14:52;15879.09;;;-142.83;90.27
9129;BME280;4599;50.906;6.786;2023-04-01T17:19:04;15875.00;;;-142.83;90.41
9129;BME280;4599;50.906;6.786;2023-04-01T17:23:14;15848.44;;;-142.83;90.52
9129;BME280;4599;50.906;6.786;2023-04-01T17:27:29;15895.47;;;-142.83;90.33
9129;BME280;4599;50.906;6.786;2023-04-01T17:31:46;15854.56;;;-142.83;91.15
9129;BME280;4599;50.906;6.786;2023-04-01T17:35:58;15897.50;;;-142.83;90.80
9129;BME280;4599;50.906;6.786;2023-04-01T17:40:15;15889.31;;;-142.83;91.24
9129;BME280;4599;50.906;6.786;2023-04-01T17:44:32;15844.34;;;-142.83;91.20
9129;BME280;4599;50.906;6.786;2023-04-01T17:48:41;15903.63;;;-142.83;91.89
9129;BME280;4599;50.906;6.786;2023-04-01T17:52:55;15875.00;;;-142.83;91.66
9129;BME280;4599;50.906;6.786;2023-04-01T17:57:19;15883.19;;;-142.83;92.25
9129;BME280;4599;50.906;6.786;2023-04-01T18:01:34;15858.66;;;-142.83;91.57
9129;BME280;4599;50.906;6.786;2023-04-01T18:05:47;15868.88;;;-142.83;92.88
9129;BME280;4599;50.906;6.786;2023-04-01T18:10:03;15889.31;;;-142.83;92.88
9129;BME280;4599;50.906;6.786;2023-04-01T18:14:26;15895.47;;;-142.83;93.99
9129;BME280;4599;50.906;6.786;2023-04-01T18:18:42;15893.41;;;-142.83;94.09
9129;BME280;4599;50.906;6.786;2023-04-01T18:22:53;15856.59;;;-142.83;93.79
9129;BME280;4599;50.906;6.786;2023-04-01T18:27:16;15889.31;;;-142.83;93.35
9129;BME280;4599;50.906;6.786;2023-04-01T18:31:23;15907.72;;;-142.83;93.68
9129;BME280;4599;50.906;6.786;2023-04-01T18:35:32;65880.28;;;-142.83;100.00
9129;BME280;4599;50.906;6.786;2023-04-01T18:39:40;65880.28;;;-142.83;100.00
9129;BME280;4599;50.906;6.786;2023-04-01T18:43:54;65880.28;;;-142.83;100.00
9129;BME280;4599;50.906;6.786;2023-04-01T18:48:11;65880.28;;;-142.83;100.00
9129;BME280;4599;50.906;6.786;2023-04-01T18:52:20;65880.28;;;-142.83;100.00
9129;BME280;4599;50.906;6.786;2023-04-01T18:56:28;65880.28;;;-142.83;100.00
9129;BME280;4599;50.906;6.786;2023-04-01T19:00:36;65880.28;;;-142.83;100.00
9129;BME280;4599;50.906;6.786;2023-04-01T19:04:43;65880.28;;;-142.83;100.00
9129;BME280;4599;50.906;6.786;2023-04-01T19:08:46;65880.28;;;-142.83;100.00
9129;BME280;4599;50.906;6.786;2023-04-01T19:12:58;65880.28;;;-142.83;100.00
9129;BME280;4599;50.906;6.786;2023-04-01T19:17:09;65880.28;;;-142.83;100.00
9129;BME280;4599;50.906;6.786;2023-04-01T19:21:22;65880.28;;;-142.83;100.00
9129;BME280;4599;50.906;6.786;2023-04-01T19:25:35;65880.28;;;-142.83;100.00
9129;BME280;4599;50.906;6.786;2023-04-01T19:29:58;65880.28;;;-142.83;100.00
9129;BME280;4599;50.906;6.786;2023-04-01T19:34:13;65880.28;;;-142.83;100.00
9129;BME280;4599;50.906;6.786;2023-04-01T19:38:27;65880.28;;;-142.83;100.00
9129;BME280;4599;50.906;6.786;2023-04-01T19:42:35;65880.28;;;-142.83;100.00
9129;BME280;4599;50.906;6.786;2023-04-01T19:46:44;65880.28;;;-142.83;100.00
9129;BME280;4599;50.906;6.786;2023-04-01T19:50:50;65880.28;;;-142.83;100.00
9129;BME280;4599;50.906;6.786;2023-04-01T19:55:03;65880.28;;;-142.83;100.00
9129;BME280;4599;50.906;6.786;2023-04-01T19:59:13;65880.28;;;-142.83;100.00
9129;BME280;4599;50.906;6.786;2023-04-01T20:03:29;65880.28;;;-142.83;100.00
9129;BME280;4599;50.906;6.786;2023-04-01T20:07:38;65880.28;;;-142.83;100.00
9129;BME280;4599;50.906;6.786;2023-04-01T20:11:54;65880.28;;;-142.83;100.00
9129;BME280;4599;50.906;6.786;2023-04-01T20:16:02;65880.28;;;-142.83;100.00
9129;BME280;4599;50.906;6.786;2023-04-01T20:20:19;65880.28;;;-142.83;100.00
9129;BME280;4599;50.906;6.786;2023-04-01T20:24:26;65880.28;;;-142.83;100.00
9129;BME280;4599;50.906;6.786;2023-04-01T20:28:42;65880.28;;;-142.83;100.00
9129;BME280;4599;50.906;6.786;2023-04-01T20:32:57;65880.28;;;-142.83;100.00
9129;BME280;4599;50.906;6.786;2023-04-01T20:37:28;65880.28;;;-142.83;100.00
9129;BME280;4599;50.906;6.786;2023-04-01T20:41:38;65880.28;;;-142.83;100.00
9129;BME280;4599;50.906;6.786;2023-04-01T20:45:47;65880.28;;;-142.83;100.00
9129;BME280;4599;50.906;6.786;2023-04-01T20:49:56;65880.28;;;-142.83;100.00
9129;BME280;4599;50.906;6.786;2023-04-01T20:54:15;65880.28;;;-142.83;100.00
9129;BME280;4599;50.906;6.786;2023-04-01T20:58:25;65880.28;;;-142.83;100.00
9129;BME280;4599;50.906;6.786;2023-04-01T21:07:15;65880.28;;;-142.83;100.00
9129;BME280;4599;50.906;6.786;2023-04-01T21:11:28;65880.28;;;-142.83;100.00
9129;BME280;4599;50.906;6.786;2023-04-01T21:15:39;65880.28;;;-142.83;100.00
9129;BME280;4599;50.906;6.786;2023-04-01T21:20:07;65880.28;;;-142.83;100.00
9129;BME280;4599;50.906;6.786;2023-04-01T21:24:44;65880.28;;;-142.83;100.00
9129;BME280;4599;50.906;6.786;2023-04-01T21:28:59;65880.28;;;-142.83;100.00
9129;BME280;4599;50.906;6.786;2023-04-01T21:33:32;65880.28;;;-142.83;100.00
9129;BME280;4599;50.906;6.786;2023-04-01T21:37:52;65880.28;;;-142.83;100.00
9129;BME280;4599;50.906;6.786;2023-04-01T21:42:13;65880.28;;;-142.83;100.00
9129;BME280;4599;50.906;6.786;2023-04-01T21:46:37;65880.28;;;-142.83;100.00
9129;BME280;4599;50.906;6.786;2023-04-01T21:50:55;65880.28;;;-142.83;100.00
9129;BME280;4599;50.906;6.786;2023-04-01T21:55:52;65880.28;;;-142.83;100.00
9129;BME280;4599;50.906;6.786;2023-04-01T22:00:19;65880.28;;;-142.83;100.00
9129;BME280;4599;50.906;6.786;2023-04-01T22:04:37;65880.28;;;-142.83;100.00
9129;BME280;4599;50.906;6.786;2023-04-01T22:08:47;65880.28;;;-142.83;100.00
9129;BME280;4599;50.906;6.786;2023-04-01T22:12:59;65880.28;;;-142.83;100.00
9129;BME280;4599;50.906;6.786;2023-04-01T22:17:09;65880.28;;;-142.83;100.00
9129;BME280;4599;50.906;6.786;2023-04-01T22:21:20;65880.28;;;-142.83;100.00
9129;BME280;4599;50.906;6.786;2023-04-01T22:25:29;65880.28;;;-142.83;100.00
9129;BME280;4599;50.906;6.786;2023-04-01T22:29:41;65880.28;;;-142.83;100.00
9129;BME280;4599;50.906;6.786;2023-04-01T22:33:48;65880.28;;;-142.83;100.00
9129;BME280;4599;50.906;6.786;2023-04-01T22:37:58;65880.28;;;-142.83;100.00
9129;BME280;4599;50.906;6.786;2023-04-01T22:42:21;65880.28;;;-142.83;100.00
9129;BME280;4599;50.906;6.786;2023-04-01T22:46:46;65880.28;;;-142.83;100.00
9129;BME280;4599;50.906;6.786;2023-04-01T22:50:58;65880.28;;;-142.83;100.00
9129;BME280;4599;50.906;6.786;2023-04-01T22:55:09;65880.28;;;-142.83;100.00
9129;BME280;4599;50.906;6.786;2023-04-01T22:59:15;65880.28;;;-142.83;100.00
9129;BME280;4599;50.906;6.786;2023-04-01T23:03:22;65880.28;;;-142.83;100.00
9129;BME280;4599;50.906;6.786;2023-04-01T23:07:35;65880.28;;;-142.83;100.00
9129;BME280;4599;50.906;6.786;2023-04-01T23:11:44;65880.28;;;-142.83;100.00
9129;BME280;4599;50.906;6.786;2023-04-01T23:15:50;65880.28;;;-142.83;100.00